COYOTE (LAKE MENDOCINO) (COY)

Elevation: 720' · RUSSIAN R basin · Operator: US Army Corps of Engineers

Provisional data, subject to change.
Query executed Monday at 0:51:11   clock

Select a sensor type for a plot of data.
Note: Reservoir Flows are daily averages.

Earlier

Date RES ELE    STORAGE    RES CHG    TOC STO    ABV TOC    OUTFLOW    INFLOW    PPT INC    TEMP MN    TEMP MX    EVP PAN   
 FEET   AF   AF   AF   AF   CFS   CFS   INCHES   DEG F   DEG F   INCHES  
11/23/2014 709.39 28098 -- 68410 -40312 35 48 0.00 5 17 0.05
11/24/2014 709.40 28109 11 68410 -40301 39 48 0.00 2 22 0.07
11/25/2014 709.40 28109 0 68410 -40301 45 48 0.00 4 22 0.06
11/26/2014 709.38 28087 -22 68410 -40323 47 39 0.00 4 20 0.05
11/27/2014 709.37 28076 -11 68410 -40334 49 46 0.00 6 21 0.06
11/28/2014 709.38 28087 11 68410 -40323 48 54 0.35 2 12 0.01
11/29/2014 709.41 28120 33 68410 -40290 47 66 0.22 11 17 0.04
11/30/2014 709.64 28370 250 68410 -40040 37 164 0.47 11 14 0.03
12/01/2014 709.72 28457 87 68410 -39953 28 73 0.11 11 17 0.04
12/02/2014 709.85 28600 143 68410 -39810 27 101 0.77 11 17 0.04
12/03/2014 711.31 30247 1647 68410 -38163 28 860 1.84 12 15 0.03
12/04/2014 711.72 30727 480 68410 -37683 28 271 0.19 11 18 0.04
12/05/2014 712.33 31455 728 68410 -36955 28 397 0.85 12 17 0.03
12/06/2014 713.00 32277 822 68410 -36133 28 444 0.00 8 16 0.04
12/07/2014 713.17 32489 212 68410 -35921 27 135 0.00 8 16 0.03
12/08/2014 713.47 32863 374 68410 -35547 27 217 0.38 14 15 0.02
12/09/2014 713.71 33162 299 68410 -35248 27 179 0.00 12 17 0.03
12/10/2014 714.34 33950 788 68410 -34460 27 425 1.21 12 14 0.01
12/11/2014 721.28 43232 9282 68410 -25178 28 4709 2.87 10 16 0.02
12/12/2014 722.38 44807 1575 68410 -23603 25 821 0.00 8 11 0.03
12/13/2014 722.70 45269 462 68410 -23141 25 260 0.00 7 13 0.04
12/14/2014 722.90 45559 290 68410 -22851 25 173 0.02 6 13 0.04
12/15/2014 723.10 45849 290 68410 -22561 24 172 0.38 8 10 0.02
12/16/2014 723.91 47034 1185 68410 -21376 25 624 0.98 8 13 0.03
12/17/2014 725.26 49035 2001 68410 -19375 25 1036 0.56 8 13 0.03
12/18/2014 725.86 49934 899 68410 -18476 25 480 0.07 8 13 0.03
12/19/2014 726.91 51522 1588 68410 -16888 25 -- -- 10 14 0.03
12/20/2014 727.66 52667 1145 68410 -15743 -- -- -- -- -- --
12/21/2014 -- -- -- -- -- -- -- -- -- -- --
12/22/2014 -- -- -- -- -- -- -- -- -- -- --

Later | Latest

Warning! This data is preliminary and subject to revision.

Show COY Map | Plot COY Data | 1 Month COY Data | Real-Time COY Data | COY Info